Time;durP1;ratioP1;P1;durP2;ratioP2;P2;SDS_P1;SDS_P2;PMS_P1;PMS_P2;Temp;Humidity;BMP_temperature;BMP_pressure;BME280_temperature;BME280_humidity;BME280_pressure;Samples;Min_cycle;Max_cycle;Signal;HPM_P1;HPM_P2
2023/10/20 00:00:14;;;;;;;44.97;28.88;;;;;;;;;;5128060;27;20058;-58
2023/10/20 00:02:42;;;;;;;40.53;27.08;;;;;;;;;;5124736;27;20179;-57
2023/10/20 00:05:09;;;;;;;46.78;28.52;;;;;;;;;;5134677;27;20050;-58
2023/10/20 00:07:36;;;;;;;49.85;28.65;;;;;;;;;;5126218;27;20071;-57
2023/10/20 00:10:03;;;;;;;45.30;28.58;;;;;;;;;;5130992;27;20108;-56
2023/10/20 00:12:30;;;;;;;48.22;27.95;;;;;;;;;;5144087;27;20047;-58
2023/10/20 00:14:56;;;;;;;45.25;26.95;;;;;;;;;;5126701;27;20051;-57
2023/10/20 00:17:25;;;;;;;45.67;26.33;;;;;;;;;;5140317;27;20057;-57
2023/10/20 00:19:52;;;;;;;52.47;26.83;;;;;;;;;;5131650;27;20055;-56
2023/10/20 00:22:18;;;;;;;43.58;25.27;;;;;;;;;;5134693;27;20040;-57
2023/10/20 00:24:45;;;;;;;45.97;26.08;;;;;;;;;;5126195;27;20059;-55
2023/10/20 00:27:13;;;;;;;45.90;27.52;;;;;;;;;;5138350;27;20058;-56
2023/10/20 00:29:40;;;;;;;43.22;26.25;;;;;;;;;;5145596;27;20057;-57
2023/10/20 00:32:07;;;;;;;39.97;25.10;;;;;;;;;;5135834;27;20124;-56
2023/10/20 00:34:33;;;;;;;44.00;25.90;;;;;;;;;;5130238;27;20053;-57
2023/10/20 00:37:00;;;;;;;41.10;27.08;;;;;;;;;;5127214;27;20601;-58
2023/10/20 00:39:26;;;;;;;46.35;25.92;;;;;;;;;;5144906;27;20050;-57
2023/10/20 00:41:53;;;;;;;45.65;25.75;;;;;;;;;;5145885;27;20059;-57
2023/10/20 00:44:20;;;;;;;44.05;25.75;;;;;;;;;;5117857;27;20148;-57
2023/10/20 00:46:46;;;;;;;41.67;26.42;;;;;;;;;;5138703;27;20051;-56
2023/10/20 00:49:13;;;;;;;45.88;26.33;;;;;;;;;;5146167;27;20552;-57
2023/10/20 00:51:40;;;;;;;45.30;26.52;;;;;;;;;;5144795;27;20051;-57
2023/10/20 00:54:13;;;;;;;38.20;25.38;;;;;;;;;;5132929;27;20174;-55
2023/10/20 00:56:41;;;;;;;41.20;26.67;;;;;;;;;;5137080;27;20090;-57
2023/10/20 00:59:11;;;;;;;40.35;25.70;;;;;;;;;;5146259;27;20051;-56
2023/10/20 01:01:38;;;;;;;38.92;24.65;;;;;;;;;;5127086;27;20314;-57
2023/10/20 01:04:05;;;;;;;40.92;25.25;;;;;;;;;;5132926;27;20047;-57
2023/10/20 01:06:32;;;;;;;41.40;25.80;;;;;;;;;;5145355;27;20055;-58
2023/10/20 01:08:59;;;;;;;44.88;25.25;;;;;;;;;;5143379;27;20073;-56
2023/10/20 01:11:25;;;;;;;44.97;26.23;;;;;;;;;;5125746;27;20091;-54
2023/10/20 01:13:52;;;;;;;43.30;25.00;;;;;;;;;;5129053;27;20524;-56
2023/10/20 01:16:19;;;;;;;39.35;24.75;;;;;;;;;;5126846;27;20062;-56
2023/10/20 01:18:45;;;;;;;42.08;24.38;;;;;;;;;;5125196;27;20063;-58
2023/10/20 01:21:11;;;;;;;38.63;22.58;;;;;;;;;;5125076;27;20075;-58
2023/10/20 01:23:38;;;;;;;37.72;23.83;;;;;;;;;;5124277;27;20055;-56
2023/10/20 01:26:05;;;;;;;39.65;24.60;;;;;;;;;;5125698;27;20528;-57
2023/10/20 01:28:31;;;;;;;39.05;23.17;;;;;;;;;;5125514;27;20305;-57
2023/10/20 01:30:57;;;;;;;38.28;22.42;;;;;;;;;;5125645;27;20137;-56
2023/10/20 01:33:25;;;;;;;41.88;22.98;;;;;;;;;;5141547;27;20130;-56
2023/10/20 01:35:51;;;;;;;41.05;24.17;;;;;;;;;;5132094;27;20055;-57
2023/10/20 01:38:17;;;;;;;40.47;23.55;;;;;;;;;;5125597;27;20581;-58
2023/10/20 01:40:45;;;;;;;37.83;24.02;;;;;;;;;;5129162;27;20962;-56
2023/10/20 01:43:11;;;;;;;42.17;24.23;;;;;;;;;;5125297;27;20059;-56
2023/10/20 01:45:37;;;;;;;39.65;23.75;;;;;;;;;;5136200;27;20079;-55
2023/10/20 01:48:04;;;;;;;38.90;25.00;;;;;;;;;;5133049;27;20048;-58
2023/10/20 01:50:30;;;;;;;38.17;23.90;;;;;;;;;;5143822;27;20521;-54
2023/10/20 01:52:57;;;;;;;38.72;23.60;;;;;;;;;;5145482;27;20047;-58
2023/10/20 01:55:23;;;;;;;39.08;23.95;;;;;;;;;;5144672;27;20047;-56
2023/10/20 01:57:50;;;;;;;40.58;23.52;;;;;;;;;;5125339;27;20134;-56
2023/10/20 02:00:17;;;;;;;39.35;23.50;;;;;;;;;;5145183;27;20051;-55
2023/10/20 02:02:44;;;;;;;38.75;24.52;;;;;;;;;;5145292;27;20600;-57
2023/10/20 02:05:10;;;;;;;40.28;22.92;;;;;;;;;;5124579;27;20051;-58
2023/10/20 02:07:38;;;;;;;38.60;23.35;;;;;;;;;;5128523;27;20043;-57
2023/10/20 02:10:06;;;;;;;39.20;22.45;;;;;;;;;;5137640;27;20584;-59
2023/10/20 02:12:33;;;;;;;40.33;24.05;;;;;;;;;;5125018;27;20052;-58
2023/10/20 02:15:00;;;;;;;40.63;24.73;;;;;;;;;;5144858;27;20077;-55
2023/10/20 02:17:26;;;;;;;39.08;22.98;;;;;;;;;;5138896;27;20056;-55
2023/10/20 02:19:53;;;;;;;39.20;23.33;;;;;;;;;;5123877;27;20078;-56
2023/10/20 02:22:19;;;;;;;40.10;23.92;;;;;;;;;;5127053;27;20058;-58
2023/10/20 02:24:45;;;;;;;38.33;22.83;;;;;;;;;;5128888;27;20052;-57
2023/10/20 02:27:12;;;;;;;39.65;23.80;;;;;;;;;;5141337;27;20047;-55
2023/10/20 02:29:38;;;;;;;41.00;23.58;;;;;;;;;;5143974;27;20448;-57
2023/10/20 02:32:05;;;;;;;39.53;23.98;;;;;;;;;;5144237;27;20059;-59
2023/10/20 02:34:31;;;;;;;40.40;22.85;;;;;;;;;;5143676;27;20924;-56
2023/10/20 02:36:59;;;;;;;41.30;24.33;;;;;;;;;;5125297;27;20075;-57
2023/10/20 02:39:26;;;;;;;41.65;23.75;;;;;;;;;;5127346;27;20088;-57
2023/10/20 02:41:52;;;;;;;39.90;23.10;;;;;;;;;;5139438;27;20101;-57
2023/10/20 02:44:19;;;;;;;38.00;23.17;;;;;;;;;;5140904;27;20515;-57
2023/10/20 02:46:45;;;;;;;37.03;21.58;;;;;;;;;;5124112;27;20572;-57
2023/10/20 02:49:12;;;;;;;35.53;21.52;;;;;;;;;;5123499;27;20059;-58
2023/10/20 02:51:39;;;;;;;36.58;22.52;;;;;;;;;;5123746;27;20054;-55
2023/10/20 02:54:05;;;;;;;37.65;22.52;;;;;;;;;;5123996;27;20044;-57
2023/10/20 02:56:32;;;;;;;35.63;22.23;;;;;;;;;;5130939;27;20047;-57
2023/10/20 02:58:59;;;;;;;41.17;21.20;;;;;;;;;;5126402;27;20138;-58
2023/10/20 03:01:26;;;;;;;33.90;21.38;;;;;;;;;;5134353;27;20055;-56
2023/10/20 03:03:52;;;;;;;35.83;21.13;;;;;;;;;;5141759;27;20425;-56
2023/10/20 03:06:22;;;;;;;36.20;20.67;;;;;;;;;;5143956;27;20047;-57
2023/10/20 03:08:50;;;;;;;35.88;21.25;;;;;;;;;;5123983;27;20051;-57
2023/10/20 03:11:16;;;;;;;37.38;20.38;;;;;;;;;;5137350;27;20080;-57
2023/10/20 03:13:43;;;;;;;35.10;20.95;;;;;;;;;;5118925;27;20048;-58
2023/10/20 03:16:09;;;;;;;30.92;20.65;;;;;;;;;;5123073;27;20555;-54
2023/10/20 03:18:36;;;;;;;35.90;19.80;;;;;;;;;;5143274;27;20047;-57
2023/10/20 03:21:03;;;;;;;34.25;20.90;;;;;;;;;;5127868;27;20064;-56
2023/10/20 03:23:30;;;;;;;34.42;19.52;;;;;;;;;;5139796;27;20102;-57
2023/10/20 03:25:56;;;;;;;32.10;20.33;;;;;;;;;;5123755;27;20442;-58
2023/10/20 03:28:22;;;;;;;34.75;20.70;;;;;;;;;;5123757;27;20654;-57
2023/10/20 03:30:50;;;;;;;34.53;21.25;;;;;;;;;;5122213;27;20558;-57
2023/10/20 03:33:18;;;;;;;34.65;19.50;;;;;;;;;;5133781;27;20058;-58
2023/10/20 03:35:45;;;;;;;35.80;19.77;;;;;;;;;;5109885;27;20137;-56
2023/10/20 03:38:12;;;;;;;36.47;20.95;;;;;;;;;;5132448;27;20058;-55
2023/10/20 03:40:40;;;;;;;32.92;20.10;;;;;;;;;;5104802;27;20333;-57
2023/10/20 03:43:08;;;;;;;34.40;20.05;;;;;;;;;;5140661;27;20577;-56
2023/10/20 03:45:41;;;;;;;33.55;20.50;;;;;;;;;;5130158;27;20047;-57
2023/10/20 03:48:09;;;;;;;33.40;20.42;;;;;;;;;;5142140;27;20106;-57
2023/10/20 03:50:38;;;;;;;32.35;19.45;;;;;;;;;;5123659;27;20059;-57
2023/10/20 03:53:05;;;;;;;33.42;19.98;;;;;;;;;;5131163;27;20052;-57
2023/10/20 03:55:33;;;;;;;36.25;20.67;;;;;;;;;;5133970;27;20095;-57
2023/10/20 03:58:01;;;;;;;32.83;20.40;;;;;;;;;;5136818;27;20055;-54
2023/10/20 04:00:31;;;;;;;35.92;20.45;;;;;;;;;;5122926;27;20133;-54
2023/10/20 04:02:57;;;;;;;35.25;20.25;;;;;;;;;;5142633;27;20055;-57
2023/10/20 04:05:25;;;;;;;33.40;19.98;;;;;;;;;;5139672;27;20521;-56
2023/10/20 04:07:52;;;;;;;33.15;19.85;;;;;;;;;;5115230;27;20138;-57
2023/10/20 04:10:19;;;;;;;32.67;20.70;;;;;;;;;;5125305;27;20087;-52
2023/10/20 04:12:47;;;;;;;29.73;18.48;;;;;;;;;;5143801;27;20055;-57
2023/10/20 04:15:19;;;;;;;39.05;19.40;;;;;;;;;;5140695;27;20061;-56
2023/10/20 04:17:54;;;;;;;33.20;19.77;;;;;;;;;;5142334;27;20055;-57
2023/10/20 04:20:21;;;;;;;;;;;;;;;;;;5143324;27;20104;-54
2023/10/20 04:22:51;;;;;;;33.05;19.77;;;;;;;;;;5141523;27;46966;-57
2023/10/20 04:25:17;;;;;;;36.20;21.08;;;;;;;;;;5139544;27;20055;-57
2023/10/20 04:27:48;;;;;;;37.40;21.60;;;;;;;;;;5128636;27;20051;-57
2023/10/20 05:07:52;;;;;;;30.45;17.90;;;;;;;;;;5143976;27;45507;-58
2023/10/20 05:10:19;;;;;;;31.75;19.10;;;;;;;;;;5146487;27;20055;-54
2023/10/20 05:12:46;;;;;;;31.88;18.75;;;;;;;;;;5130868;27;20135;-54
2023/10/20 05:15:13;;;;;;;32.67;19.63;;;;;;;;;;5144854;27;20054;-54
2023/10/20 05:17:40;;;;;;;33.65;19.38;;;;;;;;;;5145229;27;20523;-57
2023/10/20 05:20:12;;;;;;;31.70;19.83;;;;;;;;;;5143486;27;20623;-56
2023/10/20 05:22:40;;;;;;;31.83;19.10;;;;;;;;;;5110714;27;20552;-59
2023/10/20 05:25:07;;;;;;;34.35;18.77;;;;;;;;;;5128338;27;20052;-57
2023/10/20 05:27:33;;;;;;;34.67;17.38;;;;;;;;;;5135472;27;20051;-56
2023/10/20 05:30:00;;;;;;;27.83;16.67;;;;;;;;;;5145946;27;20581;-55
2023/10/20 05:32:27;;;;;;;26.88;16.98;;;;;;;;;;5145472;27;20054;-56
2023/10/20 05:34:54;;;;;;;24.88;15.98;;;;;;;;;;5107344;27;20548;-56
2023/10/20 05:37:21;;;;;;;24.08;14.77;;;;;;;;;;5107010;27;20052;-58
2023/10/20 05:39:47;;;;;;;25.77;16.13;;;;;;;;;;5142472;27;20170;-56
2023/10/20 05:42:16;;;;;;;27.30;15.40;;;;;;;;;;5133396;27;20054;-55
2023/10/20 05:47:30;;;;;;;24.80;15.07;;;;;;;;;;5124520;27;20075;-59
2023/10/20 05:49:58;;;;;;;26.63;15.20;;;;;;;;;;5135787;27;20527;-57
2023/10/20 05:52:24;;;;;;;24.42;14.90;;;;;;;;;;5138570;27;20170;-58
2023/10/20 05:54:50;;;;;;;22.27;13.65;;;;;;;;;;5122757;27;20150;-58
2023/10/20 05:57:17;;;;;;;22.73;14.00;;;;;;;;;;5124881;27;20052;-59
2023/10/20 05:59:46;;;;;;;20.48;12.93;;;;;;;;;;5136296;27;20601;-56
2023/10/20 06:02:12;;;;;;;19.95;12.85;;;;;;;;;;5135536;27;20583;-58
2023/10/20 06:04:39;;;;;;;19.67;12.23;;;;;;;;;;5136387;27;20051;-59
2023/10/20 06:07:06;;;;;;;21.23;12.43;;;;;;;;;;5143470;27;20588;-56
2023/10/20 06:09:33;;;;;;;23.40;13.15;;;;;;;;;;5128244;27;20057;-58
2023/10/20 06:12:00;;;;;;;20.52;12.48;;;;;;;;;;5144056;27;20051;-58
2023/10/20 06:14:26;;;;;;;19.23;11.25;;;;;;;;;;5137244;27;20048;-57
2023/10/20 06:16:53;;;;;;;19.65;11.95;;;;;;;;;;5136141;27;20134;-57
2023/10/20 06:19:19;;;;;;;15.95;10.15;;;;;;;;;;5143744;27;20047;-55
2023/10/20 06:21:46;;;;;;;17.23;10.20;;;;;;;;;;5131551;27;20105;-58
2023/10/20 06:24:13;;;;;;;16.65;10.38;;;;;;;;;;5135766;27;20058;-56
2023/10/20 06:26:40;;;;;;;13.45;8.85;;;;;;;;;;5134459;27;20055;-54
2023/10/20 06:32:00;;;;;;;13.23;9.57;;;;;;;;;;5123174;27;20085;-56
2023/10/20 06:34:27;;;;;;;15.07;9.65;;;;;;;;;;5128489;27;20051;-57
2023/10/20 06:37:07;;;;;;;12.48;8.82;;;;;;;;;;5136630;27;20052;-56
2023/10/20 06:39:37;;;;;;;16.90;10.10;;;;;;;;;;5122744;27;20198;-58
2023/10/20 06:42:04;;;;;;;15.68;9.75;;;;;;;;;;5119316;27;20407;-58
2023/10/20 06:44:31;;;;;;;15.27;9.88;;;;;;;;;;5133309;27;20059;-57
2023/10/20 06:46:58;;;;;;;13.35;9.63;;;;;;;;;;5127342;27;20478;-57
2023/10/20 06:49:24;;;;;;;14.63;9.82;;;;;;;;;;5127391;27;20043;-57
2023/10/20 06:51:50;;;;;;;18.77;11.02;;;;;;;;;;5143535;27;20055;-57
2023/10/20 06:54:17;;;;;;;17.38;11.20;;;;;;;;;;5124837;27;20055;-57
2023/10/20 06:56:44;;;;;;;16.92;10.75;;;;;;;;;;5131757;27;20050;-57
2023/10/20 06:59:16;;;;;;;21.13;11.52;;;;;;;;;;5135513;27;20063;-58
2023/10/20 07:01:43;;;;;;;15.13;10.70;;;;;;;;;;5132472;27;20075;-56
2023/10/20 07:04:11;;;;;;;23.02;12.75;;;;;;;;;;5126507;27;20055;-58
2023/10/20 07:06:37;;;;;;;19.17;11.88;;;;;;;;;;5136830;27;20142;-57
2023/10/20 07:09:13;;;;;;;21.48;12.43;;;;;;;;;;5142994;27;20100;-58
2023/10/20 07:11:41;;;;;;;21.80;11.85;;;;;;;;;;5134857;27;20062;-56
2023/10/20 07:14:07;;;;;;;20.08;11.57;;;;;;;;;;5143614;27;20047;-55
2023/10/20 07:16:34;;;;;;;23.13;11.02;;;;;;;;;;5124700;27;20501;-58
2023/10/20 07:19:01;;;;;;;21.35;11.38;;;;;;;;;;5134764;27;20082;-56
2023/10/20 07:21:27;;;;;;;19.15;11.55;;;;;;;;;;5136572;27;20842;-57
2023/10/20 07:23:55;;;;;;;18.35;11.60;;;;;;;;;;5122959;27;20078;-57
2023/10/20 07:26:21;;;;;;;21.48;10.77;;;;;;;;;;5142340;27;20074;-56
2023/10/20 07:28:48;;;;;;;20.98;11.00;;;;;;;;;;5128390;27;20448;-57
2023/10/20 07:31:16;;;;;;;24.33;11.40;;;;;;;;;;5130017;27;21021;-58
2023/10/20 07:33:42;;;;;;;20.05;10.82;;;;;;;;;;5143463;27;20057;-58
2023/10/20 07:36:10;;;;;;;20.42;11.25;;;;;;;;;;5132423;27;20059;-56
2023/10/20 07:38:38;;;;;;;18.00;11.27;;;;;;;;;;5133668;27;20130;-58
2023/10/20 07:41:06;;;;;;;18.65;11.27;;;;;;;;;;5123195;27;20059;-59
2023/10/20 07:43:33;;;;;;;18.10;10.85;;;;;;;;;;5126941;27;20082;-57
2023/10/20 07:45:59;;;;;;;18.63;10.70;;;;;;;;;;5143643;27;20082;-57
2023/10/20 07:48:26;;;;;;;18.67;10.52;;;;;;;;;;5126750;27;20849;-58
2023/10/20 07:50:52;;;;;;;20.48;10.93;;;;;;;;;;5111022;27;20055;-53
2023/10/20 07:53:19;;;;;;;19.75;9.88;;;;;;;;;;5128042;27;20096;-53
2023/10/20 07:55:45;;;;;;;20.48;10.13;;;;;;;;;;5136128;27;20139;-57
2023/10/20 07:58:12;;;;;;;15.93;9.00;;;;;;;;;;5134071;27;20500;-54
2023/10/20 08:00:38;;;;;;;15.38;10.02;;;;;;;;;;5140014;27;20101;-57
2023/10/20 08:03:05;;;;;;;15.88;8.88;;;;;;;;;;5132167;27;20051;-58
2023/10/20 08:05:34;;;;;;;15.93;9.50;;;;;;;;;;5133230;27;20061;-56
2023/10/20 08:08:01;;;;;;;14.02;8.38;;;;;;;;;;5132390;27;20138;-57
2023/10/20 08:10:27;;;;;;;16.40;8.68;;;;;;;;;;5131603;27;20051;-54
2023/10/20 08:12:54;;;;;;;14.02;7.78;;;;;;;;;;5126371;27;20395;-58
2023/10/20 08:15:21;;;;;;;16.92;8.18;;;;;;;;;;5129881;27;20423;-58
2023/10/20 08:17:50;;;;;;;13.20;7.82;;;;;;;;;;5134205;27;20616;-57
2023/10/20 08:20:16;;;;;;;11.27;6.75;;;;;;;;;;5125490;27;20202;-58
2023/10/20 08:22:43;;;;;;;11.75;6.72;;;;;;;;;;5125818;27;20048;-58
2023/10/20 08:25:10;;;;;;;9.90;6.43;;;;;;;;;;5133051;27;20525;-54
2023/10/20 08:27:36;;;;;;;7.95;5.72;;;;;;;;;;5134859;27;20048;-57
2023/10/20 08:30:04;;;;;;;9.73;5.70;;;;;;;;;;5139265;27;20523;-59
2023/10/20 08:32:31;;;;;;;9.52;5.68;;;;;;;;;;5128759;27;20100;-58
2023/10/20 08:34:58;;;;;;;10.35;5.28;;;;;;;;;;5125006;27;20138;-57
2023/10/20 08:37:25;;;;;;;9.00;5.38;;;;;;;;;;5137532;27;20799;-58
2023/10/20 08:39:54;;;;;;;9.60;5.93;;;;;;;;;;5125904;27;20051;-54
2023/10/20 08:42:21;;;;;;;9.18;5.07;;;;;;;;;;5124773;27;20139;-58
2023/10/20 08:44:49;;;;;;;6.65;4.50;;;;;;;;;;5134817;27;20051;-58
2023/10/20 08:47:17;;;;;;;8.90;4.50;;;;;;;;;;5136757;27;20232;-56
2023/10/20 08:49:44;;;;;;;8.30;4.72;;;;;;;;;;5124474;27;20051;-56
2023/10/20 08:52:11;;;;;;;6.45;4.45;;;;;;;;;;5126858;27;20607;-55
2023/10/20 08:54:38;;;;;;;6.20;4.03;;;;;;;;;;5124568;27;20463;-58
2023/10/20 08:57:05;;;;;;;5.53;3.50;;;;;;;;;;5116333;27;20058;-58
2023/10/20 08:59:32;;;;;;;7.05;4.28;;;;;;;;;;5127100;27;20052;-57
2023/10/20 09:01:58;;;;;;;4.47;3.78;;;;;;;;;;5146445;27;20043;-57
2023/10/20 09:04:26;;;;;;;4.30;3.05;;;;;;;;;;5127955;27;20520;-57
2023/10/20 09:06:53;;;;;;;6.47;3.70;;;;;;;;;;5137997;27;20536;-56
2023/10/20 09:09:20;;;;;;;5.75;3.72;;;;;;;;;;5110702;27;20051;-56
2023/10/20 09:11:47;;;;;;;4.35;3.50;;;;;;;;;;5125239;27;20060;-55
2023/10/20 09:14:14;;;;;;;3.92;3.17;;;;;;;;;;5124335;27;20055;-56
2023/10/20 09:16:42;;;;;;;4.63;3.25;;;;;;;;;;5125950;27;20048;-56
2023/10/20 09:19:09;;;;;;;3.70;2.72;;;;;;;;;;5133455;27;20106;-61
2023/10/20 09:21:37;;;;;;;3.70;2.85;;;;;;;;;;5138350;27;20051;-57
2023/10/20 09:24:04;;;;;;;4.35;2.60;;;;;;;;;;5121068;27;20094;-56
2023/10/20 09:26:38;;;;;;;3.83;2.85;;;;;;;;;;5127531;27;20511;-58
2023/10/20 09:29:05;;;;;;;4.72;2.67;;;;;;;;;;5124877;27;20048;-56
2023/10/20 09:31:35;;;;;;;3.20;2.35;;;;;;;;;;5107155;27;20055;-57
2023/10/20 09:34:04;;;;;;;4.30;2.53;;;;;;;;;;5126620;27;20067;-58
2023/10/20 09:36:31;;;;;;;3.15;2.42;;;;;;;;;;5129239;27;20056;-58
2023/10/20 09:38:58;;;;;;;4.10;2.90;;;;;;;;;;5124578;27;20198;-59
2023/10/20 09:41:28;;;;;;;5.70;2.67;;;;;;;;;;5126499;27;20120;-57
2023/10/20 09:44:08;;;;;;;2.97;2.63;;;;;;;;;;5125037;27;20079;-56
2023/10/20 09:46:53;;;;;;;3.10;2.40;;;;;;;;;;5105839;27;20052;-56
2023/10/20 09:49:21;;;;;;;3.35;2.50;;;;;;;;;;5127148;27;20089;-56
2023/10/20 09:51:50;;;;;;;2.90;2.40;;;;;;;;;;5137938;27;20051;-56
2023/10/20 09:54:21;;;;;;;3.00;2.38;;;;;;;;;;5127468;27;20489;-51
2023/10/20 09:56:49;;;;;;;2.72;2.20;;;;;;;;;;5128683;27;20047;-55
2023/10/20 09:59:16;;;;;;;2.80;1.85;;;;;;;;;;5132195;27;20051;-56
2023/10/20 10:01:43;;;;;;;3.38;2.00;;;;;;;;;;5125982;27;20129;-57
2023/10/20 10:04:10;;;;;;;2.85;2.08;;;;;;;;;;5126628;27;20055;-55
2023/10/20 10:06:38;;;;;;;2.53;1.88;;;;;;;;;;5139885;27;20586;-56
2023/10/20 10:09:05;;;;;;;2.38;1.90;;;;;;;;;;5125149;27;20075;-54
2023/10/20 10:11:37;;;;;;;2.00;1.80;;;;;;;;;;5144236;27;20362;-57
2023/10/20 10:14:08;;;;;;;2.60;1.88;;;;;;;;;;5129991;27;20051;-55
2023/10/20 10:16:49;;;;;;;2.45;1.85;;;;;;;;;;5129683;27;20047;-56
2023/10/20 10:19:17;;;;;;;2.92;1.95;;;;;;;;;;5123344;27;20047;-57
2023/10/20 10:21:47;;;;;;;1.70;1.55;;;;;;;;;;5123952;27;20058;-56
2023/10/20 10:24:16;;;;;;;1.55;1.45;;;;;;;;;;5123975;27;20081;-55
2023/10/20 10:26:46;;;;;;;1.80;1.70;;;;;;;;;;5138977;27;20466;-55
2023/10/20 10:29:13;;;;;;;4.30;1.77;;;;;;;;;;5138834;27;20059;-55
2023/10/20 10:31:41;;;;;;;2.22;1.55;;;;;;;;;;5137758;27;20047;-41
2023/10/20 10:34:22;;;;;;;4.22;1.75;;;;;;;;;;5125640;27;20442;-54
2023/10/20 10:36:48;;;;;;;2.38;1.27;;;;;;;;;;5124237;27;20062;-54
2023/10/20 10:39:27;;;;;;;2.05;1.23;;;;;;;;;;5133327;27;20051;-57
2023/10/20 10:41:54;;;;;;;1.05;1.00;;;;;;;;;;5136510;27;20047;-56
2023/10/20 10:44:21;;;;;;;1.40;1.27;;;;;;;;;;5136764;27;20054;-56
2023/10/20 10:46:48;;;;;;;1.67;1.30;;;;;;;;;;5127396;27;20058;-55
2023/10/20 10:49:14;;;;;;;1.13;0.93;;;;;;;;;;5126204;27;20056;-56
2023/10/20 10:51:47;;;;;;;1.52;1.20;;;;;;;;;;5127722;27;20168;-57
2023/10/20 10:54:17;;;;;;;1.02;1.00;;;;;;;;;;5137435;27;20077;-56
2023/10/20 10:56:43;;;;;;;2.05;1.58;;;;;;;;;;5127518;27;20498;-57
2023/10/20 10:59:11;;;;;;;2.10;1.00;;;;;;;;;;5108809;27;20047;-55
2023/10/20 11:01:38;;;;;;;1.20;1.10;;;;;;;;;;5106030;27;20788;-56
2023/10/20 11:04:09;;;;;;;0.95;0.95;;;;;;;;;;5123363;27;20055;-57
2023/10/20 11:06:38;;;;;;;2.80;1.40;;;;;;;;;;5137195;27;20047;-57
2023/10/20 11:09:11;;;;;;;1.17;0.95;;;;;;;;;;5116032;27;20060;-57
2023/10/20 11:11:45;;;;;;;1.40;1.10;;;;;;;;;;5122426;27;20059;-56
2023/10/20 11:14:12;;;;;;;1.20;1.10;;;;;;;;;;5125126;27;20051;-57
2023/10/20 11:16:39;;;;;;;1.98;1.00;;;;;;;;;;5122833;27;20044;-56
2023/10/20 11:19:05;;;;;;;1.35;1.05;;;;;;;;;;5122860;27;20055;-56
2023/10/20 11:21:44;;;;;;;0.90;0.90;;;;;;;;;;5122915;27;20714;-55
2023/10/20 11:24:11;;;;;;;1.00;1.00;;;;;;;;;;5129507;27;20474;-53
2023/10/20 11:26:37;;;;;;;2.20;1.85;;;;;;;;;;5123599;27;20167;-57
2023/10/20 11:29:08;;;;;;;1.60;1.00;;;;;;;;;;5122686;27;20105;-56
2023/10/20 11:31:35;;;;;;;1.33;1.05;;;;;;;;;;5122996;27;20522;-54
2023/10/20 11:34:01;;;;;;;1.35;1.25;;;;;;;;;;5122261;27;20051;-57
2023/10/20 11:36:28;;;;;;;1.13;1.00;;;;;;;;;;5143096;27;20425;-54
2023/10/20 11:38:54;;;;;;;1.23;1.13;;;;;;;;;;5139495;27;20492;-56
2023/10/20 11:41:20;;;;;;;2.75;1.23;;;;;;;;;;5126757;27;20528;-55
2023/10/20 11:43:47;;;;;;;2.38;1.63;;;;;;;;;;5126830;27;20378;-55
2023/10/20 11:46:13;;;;;;;1.50;1.33;;;;;;;;;;5136303;27;20428;-58
2023/10/20 11:48:40;;;;;;;2.17;1.48;;;;;;;;;;5144048;27;20048;-58
2023/10/20 11:51:08;;;;;;;2.42;1.33;;;;;;;;;;5142022;27;20639;-56
2023/10/20 11:53:35;;;;;;;1.90;1.50;;;;;;;;;;5130742;27;20069;-58
2023/10/20 11:56:02;;;;;;;1.38;1.27;;;;;;;;;;5126261;27;20501;-56
2023/10/20 11:58:28;;;;;;;1.17;1.08;;;;;;;;;;5125176;27;20141;-54
2023/10/20 12:00:54;;;;;;;1.27;1.17;;;;;;;;;;5125864;27;20059;-56
2023/10/20 12:03:21;;;;;;;0.93;0.90;;;;;;;;;;5146224;27;20082;-55
2023/10/20 12:05:47;;;;;;;1.55;1.20;;;;;;;;;;5131758;27;20074;-53
2023/10/20 12:08:15;;;;;;;1.75;1.65;;;;;;;;;;5140445;27;20482;-58
2023/10/20 12:10:42;;;;;;;1.50;1.23;;;;;;;;;;5136389;27;20050;-56
2023/10/20 12:13:08;;;;;;;1.20;1.08;;;;;;;;;;5139629;27;20059;-56
2023/10/20 12:15:37;;;;;;;2.08;0.90;;;;;;;;;;5140271;27;20497;-56
2023/10/20 12:18:06;;;;;;;3.50;1.20;;;;;;;;;;5142131;27;20112;-56
2023/10/20 12:20:33;;;;;;;1.52;1.27;;;;;;;;;;5142184;27;20514;-56
2023/10/20 12:22:59;;;;;;;1.40;1.30;;;;;;;;;;5145818;27;20130;-57
2023/10/20 12:25:26;;;;;;;1.55;1.27;;;;;;;;;;5129203;27;20063;-57
2023/10/20 12:27:52;;;;;;;1.65;1.15;;;;;;;;;;5139885;27;20189;-55
2023/10/20 12:30:20;;;;;;;1.17;1.08;;;;;;;;;;5128989;27;20051;-51
2023/10/20 12:32:46;;;;;;;1.35;1.25;;;;;;;;;;5145520;27;20047;-57
2023/10/20 12:35:16;;;;;;;2.15;1.20;;;;;;;;;;5140141;27;20067;-53
2023/10/20 12:37:43;;;;;;;1.40;1.13;;;;;;;;;;5145624;27;20062;-57
2023/10/20 12:40:13;;;;;;;1.38;1.23;;;;;;;;;;5131510;27;20071;-57
2023/10/20 12:42:40;;;;;;;2.15;1.30;;;;;;;;;;5124998;27;20043;-55
2023/10/20 12:45:09;;;;;;;1.67;1.08;;;;;;;;;;5132854;27;20135;-53
2023/10/20 12:47:36;;;;;;;1.20;1.10;;;;;;;;;;5131994;27;20351;-57
2023/10/20 12:50:03;;;;;;;2.33;1.48;;;;;;;;;;5144553;27;20459;-55
2023/10/20 12:52:30;;;;;;;1.27;1.17;;;;;;;;;;5126463;27;20149;-56
2023/10/20 12:54:56;;;;;;;1.67;1.23;;;;;;;;;;5139593;27;20047;-54
2023/10/20 12:57:22;;;;;;;1.58;1.48;;;;;;;;;;5145829;27;20130;-57
2023/10/20 12:59:50;;;;;;;1.40;1.30;;;;;;;;;;5134375;27;20058;-55
2023/10/20 13:02:16;;;;;;;2.28;1.30;;;;;;;;;;5144790;27;20105;-57
2023/10/20 13:04:43;;;;;;;1.42;1.30;;;;;;;;;;5132893;27;20140;-55
2023/10/20 13:07:09;;;;;;;1.40;1.30;;;;;;;;;;5125717;27;20518;-55
2023/10/20 13:09:40;;;;;;;1.50;1.40;;;;;;;;;;5131257;27;20518;-54
2023/10/20 13:12:06;;;;;;;1.92;1.27;;;;;;;;;;5141749;27;20057;-53
2023/10/20 13:14:34;;;;;;;1.40;1.30;;;;;;;;;;5124377;27;20051;-55
2023/10/20 13:17:01;;;;;;;1.50;1.40;;;;;;;;;;5137030;27;20509;-56
2023/10/20 13:19:29;;;;;;;1.05;1.05;;;;;;;;;;5124736;27;20121;-52
2023/10/20 13:21:56;;;;;;;1.30;1.20;;;;;;;;;;5124577;27;20048;-56
2023/10/20 13:24:23;;;;;;;2.85;1.40;;;;;;;;;;5137473;27;20047;-57
2023/10/20 13:26:51;;;;;;;2.10;1.25;;;;;;;;;;5132280;27;20603;-57
2023/10/20 13:29:17;;;;;;;1.38;1.10;;;;;;;;;;5136695;27;20043;-58
2023/10/20 13:31:44;;;;;;;1.40;1.30;;;;;;;;;;5125202;27;20059;-56
2023/10/20 13:34:10;;;;;;;2.28;1.05;;;;;;;;;;5124425;27;20453;-55
2023/10/20 13:36:37;;;;;;;1.30;1.20;;;;;;;;;;5134138;27;20055;-57
2023/10/20 13:39:07;;;;;;;1.52;1.42;;;;;;;;;;5142969;27;20240;-55
2023/10/20 13:41:42;;;;;;;1.90;1.00;;;;;;;;;;5125147;27;20717;-57
2023/10/20 13:44:10;;;;;;;1.10;1.00;;;;;;;;;;5124255;27;20105;-57
2023/10/20 13:46:36;;;;;;;0.93;0.85;;;;;;;;;;5136352;27;20336;-54
2023/10/20 13:49:03;;;;;;;1.77;1.17;;;;;;;;;;5127238;27;20506;-58
2023/10/20 13:51:29;;;;;;;1.27;1.20;;;;;;;;;;5124512;27;20074;-56
2023/10/20 13:53:56;;;;;;;1.10;0.95;;;;;;;;;;5124019;27;20048;-58
2023/10/20 13:56:23;;;;;;;1.17;0.80;;;;;;;;;;5130953;27;20520;-57
2023/10/20 13:58:49;;;;;;;3.83;1.00;;;;;;;;;;5136344;27;20055;-54
2023/10/20 14:01:15;;;;;;;3.60;0.93;;;;;;;;;;5123063;27;20541;-56
2023/10/20 14:03:42;;;;;;;1.17;0.93;;;;;;;;;;5130380;27;20545;-59
2023/10/20 14:06:10;;;;;;;5.65;0.98;;;;;;;;;;5124480;27;20411;-57
2023/10/20 14:08:37;;;;;;;3.38;0.80;;;;;;;;;;5123389;27;20082;-52
2023/10/20 14:11:04;;;;;;;1.80;0.80;;;;;;;;;;5124152;27;20052;-58
2023/10/20 14:13:31;;;;;;;2.47;1.00;;;;;;;;;;5137000;27;20101;-58
2023/10/20 14:15:58;;;;;;;0.80;0.80;;;;;;;;;;5137961;27;20826;-56
2023/10/20 14:18:24;;;;;;;0.98;0.80;;;;;;;;;;5131608;27;20570;-56
2023/10/20 14:20:51;;;;;;;1.33;0.70;;;;;;;;;;5123027;27;20085;-58
2023/10/20 14:23:17;;;;;;;1.80;0.80;;;;;;;;;;5123689;27;20054;-57
2023/10/20 14:25:44;;;;;;;1.20;0.80;;;;;;;;;;5123777;27;20128;-58
2023/10/20 14:28:11;;;;;;;1.17;0.80;;;;;;;;;;5125216;27;20527;-55
2023/10/20 14:30:37;;;;;;;0.65;0.65;;;;;;;;;;5132717;27;20132;-57
2023/10/20 14:33:04;;;;;;;1.30;0.70;;;;;;;;;;5123807;27;20062;-57
2023/10/20 14:35:34;;;;;;;0.85;0.80;;;;;;;;;;5124284;27;20078;-58
2023/10/20 14:38:01;;;;;;;1.38;0.80;;;;;;;;;;5126130;27;20158;-56
2023/10/20 14:40:27;;;;;;;2.20;1.00;;;;;;;;;;5135630;27;20054;-56
2023/10/20 14:42:53;;;;;;;0.80;0.80;;;;;;;;;;5129371;27;20528;-58
2023/10/20 14:45:20;;;;;;;1.10;1.00;;;;;;;;;;5143238;27;20170;-53
2023/10/20 14:47:46;;;;;;;1.10;1.00;;;;;;;;;;5142430;27;20046;-55
2023/10/20 14:50:13;;;;;;;1.38;0.90;;;;;;;;;;5139559;27;20062;-56
2023/10/20 14:52:40;;;;;;;0.90;0.90;;;;;;;;;;5134937;27;20055;-58
2023/10/20 14:55:08;;;;;;;0.98;0.88;;;;;;;;;;5126629;27;20043;-54
2023/10/20 14:57:35;;;;;;;0.90;0.90;;;;;;;;;;5137909;27;20050;-58
2023/10/20 15:00:06;;;;;;;0.70;0.68;;;;;;;;;;5141272;27;20047;-57
2023/10/20 15:02:34;;;;;;;0.90;0.90;;;;;;;;;;5134856;27;20051;-57
2023/10/20 15:05:00;;;;;;;1.10;1.00;;;;;;;;;;5126245;27;20048;-55
2023/10/20 15:07:27;;;;;;;0.77;0.77;;;;;;;;;;5133317;27;20544;-57
2023/10/20 15:09:54;;;;;;;1.85;1.02;;;;;;;;;;5143506;27;20829;-57
2023/10/20 15:12:21;;;;;;;0.85;0.85;;;;;;;;;;5144257;27;20054;-58
2023/10/20 15:14:47;;;;;;;1.20;1.10;;;;;;;;;;5144138;27;20051;-57